createdAt,value
2018-12-30T00:00:35.134Z,8.50
2018-12-30T00:01:35.160Z,8.50
2018-12-30T00:02:35.114Z,8.55
2018-12-30T00:03:35.103Z,8.52
2018-12-30T00:04:35.122Z,8.46
2018-12-30T00:05:35.079Z,8.50
2018-12-30T00:06:35.075Z,8.53
2018-12-30T00:07:35.057Z,8.50
2018-12-30T00:08:35.045Z,8.52
2018-12-30T00:09:35.059Z,8.52
2018-12-30T00:10:35.025Z,8.47
2018-12-30T00:11:35.019Z,8.49
2018-12-30T00:12:35.062Z,8.55
2018-12-30T00:13:34.994Z,8.52
2018-12-30T00:14:35.005Z,8.52
2018-12-30T00:15:34.968Z,8.46
2018-12-30T00:16:34.960Z,8.49
2018-12-30T00:17:34.952Z,8.47
2018-12-30T00:18:34.950Z,8.53
2018-12-30T00:19:42.329Z,8.47
2018-12-30T00:20:34.915Z,8.42
2018-12-30T00:21:34.903Z,8.52
2018-12-30T00:22:34.894Z,8.49
2018-12-30T00:23:34.880Z,8.47
2018-12-30T00:24:34.893Z,8.50
2018-12-30T00:25:34.857Z,8.46
2018-12-30T00:26:34.850Z,8.44
2018-12-30T00:27:34.837Z,8.53
2018-12-30T00:28:34.823Z,8.50
2018-12-30T00:29:34.838Z,8.49
2018-12-30T00:30:34.815Z,8.46
2018-12-30T00:31:34.792Z,8.47
2018-12-30T00:32:34.779Z,8.47
2018-12-30T00:33:34.767Z,8.49
2018-12-30T00:34:34.806Z,8.42
2018-12-30T00:35:34.757Z,8.47
2018-12-30T00:36:34.735Z,8.47
2018-12-30T00:37:34.724Z,8.42
2018-12-30T00:38:34.711Z,8.39
2018-12-30T00:39:34.701Z,8.47
2018-12-30T00:40:34.785Z,8.49
2018-12-30T00:41:34.678Z,8.42
2018-12-30T00:42:34.668Z,8.55
2018-12-30T00:43:34.736Z,8.44
2018-12-30T00:44:34.645Z,8.41
2018-12-30T00:45:34.658Z,8.42
2018-12-30T00:46:34.627Z,8.42
2018-12-30T00:47:34.612Z,8.47
2018-12-30T00:48:34.601Z,8.38
2018-12-30T00:49:34.590Z,8.49
2018-12-30T00:50:34.605Z,8.39
2018-12-30T00:51:34.567Z,8.38
2018-12-30T00:52:34.557Z,8.46
2018-12-30T00:53:34.546Z,8.46
2018-12-30T00:54:34.538Z,8.42
2018-12-30T00:55:34.550Z,8.46
2018-12-30T00:56:34.513Z,8.50
2018-12-30T00:57:34.501Z,8.47
2018-12-30T00:58:34.494Z,8.39
2018-12-30T00:59:34.478Z,8.46
2018-12-30T01:00:34.490Z,8.42
2018-12-30T01:01:34.455Z,8.50
2018-12-30T01:02:34.447Z,8.47
2018-12-30T01:03:34.434Z,8.46
2018-12-30T01:04:34.428Z,8.42
2018-12-30T01:05:34.448Z,8.42
2018-12-30T01:06:34.400Z,8.46
2018-12-30T01:07:34.392Z,8.47
2018-12-30T01:08:34.380Z,8.47
2018-12-30T01:09:34.375Z,8.41
2018-12-30T01:10:34.358Z,8.38
2018-12-30T01:11:34.370Z,8.42
2018-12-30T01:12:34.335Z,8.42
2018-12-30T01:13:34.329Z,8.39
2018-12-30T01:14:34.314Z,8.38
2018-12-30T01:15:34.301Z,8.42
2018-12-30T01:16:34.319Z,8.42
2018-12-30T01:17:34.290Z,8.42
2018-12-30T01:18:34.269Z,8.39
2018-12-30T01:19:34.257Z,8.42
2018-12-30T01:20:34.245Z,8.44
2018-12-30T01:21:34.257Z,8.34
2018-12-30T01:22:34.223Z,8.38
2018-12-30T01:23:34.210Z,8.49
2018-12-30T01:24:34.200Z,8.42
2018-12-30T01:25:34.192Z,8.41
2018-12-30T01:26:34.222Z,8.44
2018-12-30T01:27:34.169Z,8.41
2018-12-30T01:28:34.155Z,8.41
2018-12-30T01:29:34.145Z,8.44
2018-12-30T01:30:34.137Z,8.38
2018-12-30T01:31:34.147Z,8.34
2018-12-30T01:32:34.115Z,8.37
2018-12-30T01:33:34.101Z,8.39
2018-12-30T01:34:34.089Z,8.37
2018-12-30T01:35:34.080Z,8.35
2018-12-30T01:36:34.093Z,8.38
2018-12-30T01:37:34.057Z,8.28
2018-12-30T01:38:34.047Z,8.32
2018-12-30T01:39:34.035Z,8.31
2018-12-30T01:40:34.031Z,8.34
2018-12-30T01:41:34.047Z,8.26
2018-12-30T01:42:34.005Z,8.35
2018-12-30T01:43:33.995Z,8.35
2018-12-30T01:44:33.978Z,8.37
2018-12-30T01:45:33.965Z,8.35
2018-12-30T01:46:33.956Z,8.34
2018-12-30T01:47:33.965Z,8.38
2018-12-30T01:48:33.933Z,8.32
2018-12-30T01:49:33.926Z,8.28
2018-12-30T01:50:33.911Z,8.32
2018-12-30T01:51:33.902Z,8.24
2018-12-30T01:52:33.912Z,8.21
2018-12-30T01:53:33.877Z,8.31
2018-12-30T01:54:33.870Z,8.20
2018-12-30T01:55:33.858Z,8.28
2018-12-30T01:56:33.856Z,8.28
2018-12-30T01:57:33.862Z,8.21
2018-12-30T01:58:33.830Z,8.28
2018-12-30T01:59:33.817Z,8.16
2018-12-30T02:00:33.802Z,8.17
2018-12-30T02:01:33.790Z,8.13
2018-12-30T02:02:33.802Z,8.17
2018-12-30T02:03:33.767Z,8.19
2018-12-30T02:04:33.756Z,8.16
2018-12-30T02:05:33.747Z,8.19
2018-12-30T02:06:33.739Z,8.17
2018-12-30T02:07:33.752Z,8.13
2018-12-30T02:08:33.712Z,8.10
2018-12-30T02:09:33.700Z,8.20
2018-12-30T02:10:33.689Z,8.17
2018-12-30T02:11:33.681Z,8.21
2018-12-30T02:12:33.711Z,8.16
2018-12-30T02:13:33.658Z,8.17
2018-12-30T02:14:33.645Z,8.20
2018-12-30T02:15:33.634Z,8.17
2018-12-30T02:16:33.627Z,8.19
2018-12-30T02:17:33.614Z,8.17
2018-12-30T02:18:33.622Z,8.19
2018-12-30T02:19:33.605Z,8.19
2018-12-30T02:20:33.581Z,8.19
2018-12-30T02:21:40.928Z,8.16
2018-12-30T02:22:34.556Z,8.16
2018-12-30T02:23:33.567Z,8.16
2018-12-30T02:24:33.538Z,8.14
2018-12-30T02:25:33.522Z,8.19
2018-12-30T02:26:33.511Z,8.14
2018-12-30T02:27:33.499Z,8.20
2018-12-30T02:28:33.521Z,8.20
2018-12-30T02:29:33.480Z,8.04
2018-12-30T02:30:33.472Z,8.10
2018-12-30T02:31:33.455Z,8.16
2018-12-30T02:32:33.444Z,8.23
2018-12-30T02:33:33.458Z,8.20
2018-12-30T02:34:33.424Z,8.16
2018-12-30T02:35:33.410Z,8.17
2018-12-30T02:36:33.408Z,8.19
2018-12-30T02:37:33.391Z,8.20
2018-12-30T02:38:33.400Z,8.28
2018-12-30T02:39:33.368Z,8.19
2018-12-30T02:40:33.355Z,8.20
2018-12-30T02:41:33.349Z,8.14
2018-12-30T02:42:33.352Z,8.16
2018-12-30T02:43:33.344Z,8.19
2018-12-30T02:44:33.315Z,8.24
2018-12-30T02:45:33.303Z,8.13
2018-12-30T02:46:33.289Z,8.20
2018-12-30T02:47:33.280Z,8.20
2018-12-30T02:48:33.300Z,8.17
2018-12-30T02:49:33.258Z,8.12
2018-12-30T02:50:33.243Z,8.17
2018-12-30T02:51:33.232Z,8.21
2018-12-30T02:52:33.224Z,8.21
2018-12-30T02:53:33.240Z,8.28
2018-12-30T02:54:33.200Z,8.21
2018-12-30T02:55:33.188Z,8.21
2018-12-30T02:56:33.177Z,8.26
2018-12-30T02:57:33.166Z,8.23
2018-12-30T02:58:33.180Z,8.20
2018-12-30T02:59:33.145Z,8.21
2018-12-30T03:00:33.134Z,8.13
2018-12-30T03:01:33.133Z,8.28
2018-12-30T03:02:33.112Z,8.13
2018-12-30T03:03:33.123Z,8.17
2018-12-30T03:04:33.090Z,8.21
2018-12-30T03:05:33.077Z,8.17
2018-12-30T03:06:33.070Z,8.19
2018-12-30T03:07:33.056Z,8.19
2018-12-30T03:08:33.067Z,8.20
2018-12-30T03:09:33.033Z,8.14
2018-12-30T03:10:33.022Z,8.16
2018-12-30T03:11:33.012Z,8.20
2018-12-30T03:12:33.000Z,8.13
2018-12-30T03:13:33.015Z,8.16
2018-12-30T03:14:32.978Z,8.17
2018-12-30T03:15:32.975Z,8.06
2018-12-30T03:16:32.957Z,8.16
2018-12-30T03:17:32.948Z,8.04
2018-12-30T03:18:32.979Z,8.13
2018-12-30T03:19:32.924Z,8.12
2018-12-30T03:20:32.915Z,8.06
2018-12-30T03:21:32.901Z,8.12
2018-12-30T03:22:32.889Z,7.99
2018-12-30T03:23:32.878Z,8.06
2018-12-30T03:24:32.891Z,8.20
2018-12-30T03:25:32.855Z,8.13
2018-12-30T03:26:32.844Z,8.19
2018-12-30T03:27:32.837Z,8.16
2018-12-30T03:28:32.821Z,8.16
2018-12-30T03:29:32.836Z,8.16
2018-12-30T03:30:32.807Z,8.16
2018-12-30T03:31:32.788Z,8.13
2018-12-30T03:32:32.781Z,8.14
2018-12-30T03:33:32.767Z,8.13
2018-12-30T03:34:32.779Z,8.16
2018-12-30T03:35:32.745Z,8.23
2018-12-30T03:36:32.732Z,8.16
2018-12-30T03:37:32.722Z,8.19
2018-12-30T03:38:32.716Z,8.16
2018-12-30T03:39:32.726Z,8.17
2018-12-30T03:40:32.689Z,8.16
2018-12-30T03:41:32.676Z,8.16
2018-12-30T03:42:32.665Z,8.20
2018-12-30T03:43:32.657Z,8.20
2018-12-30T03:44:32.673Z,8.19
2018-12-30T03:45:32.634Z,8.16
2018-12-30T03:46:32.628Z,8.17
2018-12-30T03:47:32.611Z,8.20
2018-12-30T03:48:32.598Z,8.16
2018-12-30T03:49:32.632Z,8.10
2018-12-30T03:50:32.581Z,8.19
2018-12-30T03:51:32.570Z,8.17
2018-12-30T03:52:32.554Z,8.12
2018-12-30T03:53:32.542Z,8.10
2018-12-30T03:54:32.562Z,8.14
2018-12-30T03:55:32.543Z,8.17
2018-12-30T03:56:32.509Z,8.19
2018-12-30T03:57:32.502Z,8.09
2018-12-30T03:58:32.489Z,8.16
2018-12-30T03:59:32.477Z,8.19
2018-12-30T04:00:32.490Z,8.09
2018-12-30T04:01:32.517Z,8.10
2018-12-30T04:02:32.445Z,8.19
2018-12-30T04:03:32.441Z,8.19
2018-12-30T04:04:32.424Z,8.16
2018-12-30T04:05:32.433Z,8.10
2018-12-30T04:06:32.400Z,8.26
2018-12-30T04:07:32.389Z,8.14
2018-12-30T04:08:32.376Z,8.17
2018-12-30T04:09:32.373Z,8.17
2018-12-30T04:10:32.385Z,8.16
2018-12-30T04:11:32.344Z,8.21
2018-12-30T04:12:32.334Z,8.19
2018-12-30T04:13:32.320Z,8.19
2018-12-30T04:14:32.314Z,8.14
2018-12-30T04:15:32.322Z,8.17
2018-12-30T04:16:32.292Z,8.26
2018-12-30T04:17:32.284Z,8.13
2018-12-30T04:18:32.267Z,8.19
2018-12-30T04:19:32.260Z,8.21
2018-12-30T04:20:32.270Z,8.16
2018-12-30T04:21:32.232Z,8.20
2018-12-30T04:22:33.882Z,8.20
2018-12-30T04:23:32.209Z,8.12
2018-12-30T04:24:32.202Z,8.17
2018-12-30T04:25:32.221Z,8.10
2018-12-30T04:26:32.178Z,8.06
2018-12-30T04:27:32.205Z,8.05
2018-12-30T04:28:32.153Z,8.06
2018-12-30T04:29:32.143Z,8.10
2018-12-30T04:30:32.133Z,8.17
2018-12-30T04:31:32.149Z,8.02
2018-12-30T04:32:32.129Z,8.06
2018-12-30T04:33:32.111Z,8.12
2018-12-30T04:34:32.089Z,8.04
2018-12-30T04:35:32.076Z,8.06
2018-12-30T04:36:32.143Z,8.05
2018-12-30T04:37:32.055Z,8.10
2018-12-30T04:38:32.048Z,8.02
2018-12-30T04:39:32.033Z,8.05
2018-12-30T04:40:32.021Z,8.17
2018-12-30T04:41:32.033Z,8.10
2018-12-30T04:42:31.998Z,8.12
2018-12-30T04:43:31.996Z,8.05
2018-12-30T04:44:32.006Z,8.12
2018-12-30T04:45:31.967Z,8.10
2018-12-30T04:46:31.988Z,8.16
2018-12-30T04:47:31.986Z,8.06
2018-12-30T04:48:31.935Z,8.09
2018-12-30T04:49:31.923Z,7.98
2018-12-30T04:50:31.914Z,8.12
2018-12-30T04:51:31.923Z,8.10
2018-12-30T04:52:31.889Z,8.10
2018-12-30T04:53:31.878Z,8.12
2018-12-30T04:54:31.866Z,8.06
2018-12-30T04:55:31.858Z,8.14
2018-12-30T04:56:31.940Z,8.05
2018-12-30T04:57:31.834Z,8.06
2018-12-30T04:58:31.827Z,8.05
2018-12-30T04:59:31.836Z,8.12
2018-12-30T05:00:31.799Z,8.12
2018-12-30T05:01:31.821Z,8.06
2018-12-30T05:02:31.777Z,8.09
2018-12-30T05:03:31.767Z,8.12
2018-12-30T05:04:31.759Z,8.01
2018-12-30T05:05:31.751Z,8.05
2018-12-30T05:06:31.769Z,8.12
2018-12-30T05:07:31.728Z,8.06
2018-12-30T05:08:31.717Z,8.10
2018-12-30T05:09:31.699Z,7.96
2018-12-30T05:10:31.687Z,8.13
2018-12-30T05:11:31.692Z,8.01
2018-12-30T05:12:31.693Z,8.09
2018-12-30T05:13:31.659Z,8.05
2018-12-30T05:14:31.644Z,8.13
2018-12-30T05:15:31.632Z,8.12
2018-12-30T05:16:31.623Z,8.09
2018-12-30T05:17:31.635Z,8.04
2018-12-30T05:18:31.598Z,8.06
2018-12-30T05:19:31.591Z,8.06
2018-12-30T05:20:31.579Z,8.10
2018-12-30T05:21:31.573Z,8.09
2018-12-30T05:22:33.914Z,8.13
2018-12-30T05:23:31.545Z,8.05
2018-12-30T05:24:31.542Z,8.10
2018-12-30T05:25:31.523Z,8.05
2018-12-30T05:26:31.510Z,7.99
2018-12-30T05:27:31.527Z,8.19
2018-12-30T05:28:31.489Z,8.04
2018-12-30T05:29:31.486Z,8.14
2018-12-30T05:30:31.499Z,8.10
2018-12-30T05:31:31.457Z,8.17
2018-12-30T05:32:31.470Z,8.16
2018-12-30T05:33:31.434Z,8.14
2018-12-30T05:34:31.425Z,8.09
2018-12-30T05:35:31.415Z,8.12
2018-12-30T05:36:31.403Z,8.10
2018-12-30T05:37:31.421Z,8.09
2018-12-30T05:38:31.376Z,8.02
2018-12-30T05:39:31.367Z,8.10
2018-12-30T05:40:31.356Z,8.06
2018-12-30T05:41:31.343Z,8.06
2018-12-30T05:42:31.393Z,8.06
2018-12-30T05:43:31.320Z,8.05
2018-12-30T05:44:31.309Z,8.10
2018-12-30T05:45:31.301Z,8.10
2018-12-30T05:46:31.295Z,8.09
2018-12-30T05:47:31.277Z,8.06
2018-12-30T05:48:31.291Z,8.10
2018-12-30T05:49:31.254Z,8.10
2018-12-30T05:50:31.242Z,8.01
2018-12-30T05:51:31.233Z,7.98
2018-12-30T05:52:31.220Z,8.01
2018-12-30T05:53:31.232Z,8.01
2018-12-30T05:54:31.198Z,7.99
2018-12-30T05:55:31.191Z,8.01
2018-12-30T05:56:32.070Z,8.01
2018-12-30T05:57:31.167Z,8.04
2018-12-30T05:58:31.179Z,7.99
2018-12-30T05:59:31.144Z,7.98
2018-12-30T06:00:31.130Z,8.10
2018-12-30T06:01:31.123Z,8.06
2018-12-30T06:02:31.108Z,8.02
2018-12-30T06:03:31.122Z,7.98
2018-12-30T06:04:31.085Z,8.05
2018-12-30T06:05:31.074Z,8.02
2018-12-30T06:06:31.066Z,7.98
2018-12-30T06:07:31.051Z,7.92
2018-12-30T06:08:31.064Z,7.87
2018-12-30T06:09:31.030Z,7.88
2018-12-30T06:10:31.019Z,7.92
2018-12-30T06:11:31.012Z,7.95
2018-12-30T06:12:31.000Z,7.91
2018-12-30T06:13:31.007Z,7.87
2018-12-30T06:14:30.973Z,8.04
2018-12-30T06:15:30.962Z,8.09
2018-12-30T06:16:30.952Z,8.04
2018-12-30T06:17:30.962Z,8.05
2018-12-30T06:18:30.953Z,8.04
2018-12-30T06:19:30.918Z,8.09
2018-12-30T06:20:30.907Z,8.10
2018-12-30T06:21:30.896Z,8.10
2018-12-30T06:22:30.884Z,8.10
2018-12-30T06:23:30.897Z,8.02
2018-12-30T06:24:30.870Z,8.12
2018-12-30T06:25:30.852Z,8.10
2018-12-30T06:26:30.840Z,8.06
2018-12-30T06:27:30.830Z,7.99
2018-12-30T06:28:30.861Z,8.10
2018-12-30T06:29:30.806Z,8.05
2018-12-30T06:30:30.794Z,8.01
2018-12-30T06:31:30.789Z,7.98
2018-12-30T06:32:30.782Z,8.02
2018-12-30T06:33:30.762Z,7.96
2018-12-30T06:34:30.780Z,7.99
2018-12-30T06:35:30.740Z,8.09
2018-12-30T06:36:30.734Z,8.01
2018-12-30T06:37:30.719Z,8.02
2018-12-30T06:38:30.724Z,8.01
2018-12-30T06:39:30.716Z,8.06
2018-12-30T06:40:30.683Z,8.04
2018-12-30T06:41:30.677Z,8.09
2018-12-30T06:42:30.659Z,8.09
2018-12-30T06:43:30.650Z,8.09
2018-12-30T06:44:30.662Z,8.10
2018-12-30T06:45:30.630Z,8.05
2018-12-30T06:46:30.617Z,7.95
2018-12-30T06:47:30.605Z,7.99
2018-12-30T06:48:30.614Z,8.02
2018-12-30T06:49:30.616Z,8.05
2018-12-30T06:50:30.576Z,7.94
2018-12-30T06:51:30.559Z,8.05
2018-12-30T06:52:30.549Z,8.10
2018-12-30T06:53:30.541Z,7.99
2018-12-30T06:54:30.564Z,8.01
2018-12-30T06:55:30.514Z,7.98
2018-12-30T06:56:30.503Z,8.04
2018-12-30T06:57:30.492Z,8.02
2018-12-30T06:58:30.485Z,8.06
2018-12-30T06:59:30.469Z,8.04
2018-12-30T07:00:30.482Z,8.09
2018-12-30T07:01:30.447Z,8.10
2018-12-30T07:02:30.437Z,8.09
2018-12-30T07:03:30.425Z,8.09
2018-12-30T07:04:30.422Z,8.05
2018-12-30T07:05:30.425Z,8.05
2018-12-30T07:06:30.392Z,8.06
2018-12-30T07:07:30.381Z,8.09
2018-12-30T07:08:39.612Z,8.06
2018-12-30T07:09:30.358Z,8.13
2018-12-30T07:10:30.370Z,8.12
2018-12-30T07:11:30.337Z,8.10
2018-12-30T07:12:30.328Z,8.04
2018-12-30T07:13:30.317Z,8.04
2018-12-30T07:14:30.303Z,8.12
2018-12-30T07:15:30.315Z,8.01
2018-12-30T07:16:30.285Z,8.05
2018-12-30T07:17:30.272Z,8.02
2018-12-30T07:18:30.260Z,8.06
2018-12-30T07:19:30.246Z,8.09
2018-12-30T07:20:30.262Z,8.10
2018-12-30T07:21:30.223Z,8.13
2018-12-30T07:22:30.213Z,8.09
2018-12-30T07:23:30.201Z,8.05
2018-12-30T07:24:38.584Z,8.09
2018-12-30T07:25:30.214Z,8.05
2018-12-30T07:26:30.172Z,8.05
2018-12-30T07:27:30.158Z,8.09
2018-12-30T07:28:30.152Z,8.10
2018-12-30T07:29:30.138Z,8.10
2018-12-30T07:30:30.169Z,8.09
2018-12-30T07:31:30.136Z,8.09
2018-12-30T07:32:30.102Z,8.06
2018-12-30T07:33:30.092Z,8.05
2018-12-30T07:34:30.081Z,8.06
2018-12-30T07:35:30.068Z,8.02
2018-12-30T07:36:30.084Z,8.05
2018-12-30T07:37:30.052Z,8.10
2018-12-30T07:38:30.038Z,8.10
2018-12-30T07:39:30.025Z,8.04
2018-12-30T07:40:38.587Z,8.09
2018-12-30T07:41:30.032Z,8.09
2018-12-30T07:42:29.993Z,8.04
2018-12-30T07:43:29.981Z,8.04
2018-12-30T07:44:29.970Z,8.01
2018-12-30T07:45:29.957Z,8.09
2018-12-30T07:46:29.977Z,7.99
2018-12-30T07:47:29.935Z,8.05
2018-12-30T07:48:29.926Z,7.99
2018-12-30T07:49:29.914Z,7.96
2018-12-30T07:50:29.901Z,8.05
2018-12-30T07:51:29.914Z,8.04
2018-12-30T07:52:29.880Z,8.04
2018-12-30T07:53:38.490Z,8.05
2018-12-30T07:54:29.860Z,8.10
2018-12-30T07:55:29.846Z,8.04
2018-12-30T07:56:29.874Z,8.10
2018-12-30T07:57:29.824Z,8.04
2018-12-30T07:58:29.843Z,8.09
2018-12-30T07:59:29.803Z,8.10
2018-12-30T08:00:39.088Z,8.09
2018-12-30T08:01:29.782Z,8.10
2018-12-30T08:02:29.792Z,8.13
2018-12-30T08:03:29.756Z,8.14
2018-12-30T08:04:29.747Z,8.04
2018-12-30T08:05:29.736Z,8.10
2018-12-30T08:06:29.724Z,8.05
2018-12-30T08:07:29.737Z,8.05
2018-12-30T08:08:29.707Z,8.05
2018-12-30T08:09:29.698Z,8.06
2018-12-30T08:10:29.680Z,7.99
2018-12-30T08:11:37.882Z,8.01
2018-12-30T08:12:29.680Z,8.01
2018-12-30T08:13:29.646Z,8.05
2018-12-30T08:14:29.635Z,8.04
2018-12-30T08:15:29.624Z,8.06
2018-12-30T08:16:29.614Z,7.99
2018-12-30T08:17:29.624Z,8.09
2018-12-30T08:18:29.591Z,8.04
2018-12-30T08:19:29.585Z,8.02
2018-12-30T08:20:29.568Z,8.09
2018-12-30T08:21:29.564Z,8.10
2018-12-30T08:22:38.832Z,7.99
2018-12-30T08:23:29.634Z,8.04
2018-12-30T08:24:29.531Z,7.96
2018-12-30T08:25:37.756Z,8.10
2018-12-30T08:26:29.503Z,8.05
2018-12-30T08:27:29.490Z,8.06
2018-12-30T08:28:29.503Z,8.06
2018-12-30T08:29:29.467Z,8.02
2018-12-30T08:30:29.458Z,8.14
2018-12-30T08:31:29.446Z,8.12
2018-12-30T08:32:39.131Z,8.10
2018-12-30T08:33:29.450Z,8.09
2018-12-30T08:34:29.414Z,8.13
2018-12-30T08:35:29.401Z,8.04
2018-12-30T08:36:29.393Z,8.06
2018-12-30T08:37:29.382Z,8.09
2018-12-30T08:38:29.394Z,8.13
2018-12-30T08:39:29.358Z,8.10
2018-12-30T08:40:29.362Z,8.09
2018-12-30T08:41:29.334Z,8.05
2018-12-30T08:42:29.327Z,8.04
2018-12-30T08:43:29.334Z,8.04
2018-12-30T08:44:29.302Z,7.99
2018-12-30T08:45:29.290Z,8.01
2018-12-30T08:46:29.278Z,8.04
2018-12-30T08:47:29.269Z,8.06
2018-12-30T08:48:38.521Z,8.04
2018-12-30T08:49:29.252Z,8.10
2018-12-30T08:50:29.234Z,8.09
2018-12-30T08:51:29.223Z,8.02
2018-12-30T08:52:29.216Z,7.99
2018-12-30T08:53:29.625Z,8.02
2018-12-30T08:54:29.194Z,8.09
2018-12-30T08:55:38.391Z,8.02
2018-12-30T08:56:29.169Z,8.01
2018-12-30T08:57:29.159Z,8.04
2018-12-30T08:58:29.171Z,8.01
2018-12-30T08:59:29.135Z,8.04
2018-12-30T09:00:37.350Z,7.95
2018-12-30T09:01:29.112Z,8.01
2018-12-30T09:02:29.101Z,7.96
2018-12-30T09:03:29.134Z,8.02
2018-12-30T09:04:29.080Z,7.95
2018-12-30T09:05:29.076Z,7.98
2018-12-30T09:06:29.056Z,7.91
2018-12-30T09:07:29.083Z,7.94
2018-12-30T09:08:29.036Z,7.91
2018-12-30T09:09:29.095Z,7.95
2018-12-30T09:10:29.013Z,7.96
2018-12-30T09:11:37.892Z,7.99
2018-12-30T09:12:28.996Z,7.96
2018-12-30T09:13:37.355Z,7.96
2018-12-30T09:14:28.992Z,7.96
2018-12-30T09:15:28.962Z,7.94
2018-12-30T09:16:28.954Z,7.94
2018-12-30T09:17:28.937Z,8.05
2018-12-30T09:18:28.926Z,7.98
2018-12-30T09:19:28.966Z,8.01
2018-12-30T09:20:28.967Z,8.06
2018-12-30T09:21:29.038Z,8.06
2018-12-30T09:22:28.882Z,8.17
2018-12-30T09:23:28.913Z,8.14
2018-12-30T09:24:28.895Z,8.13
2018-12-30T09:25:28.886Z,8.16
2018-12-30T09:26:28.846Z,8.20
2018-12-30T09:27:38.267Z,8.19
2018-12-30T09:28:28.813Z,8.31
2018-12-30T09:29:28.832Z,8.23
2018-12-30T09:30:37.298Z,8.23
2018-12-30T09:31:28.782Z,8.28
2018-12-30T09:32:28.769Z,8.21
2018-12-30T09:33:28.760Z,8.37
2018-12-30T09:34:28.785Z,8.24
2018-12-30T09:35:28.737Z,8.38
2018-12-30T09:36:28.724Z,8.34
2018-12-30T09:37:28.714Z,8.32
2018-12-30T09:38:28.703Z,8.38
2018-12-30T09:39:28.690Z,8.38
2018-12-30T09:40:28.704Z,8.46
2018-12-30T09:41:28.743Z,8.38
2018-12-30T09:42:28.663Z,8.41
2018-12-30T09:43:28.648Z,8.42
2018-12-30T09:44:28.637Z,8.46
2018-12-30T09:45:28.648Z,8.46
2018-12-30T09:46:28.613Z,8.57
2018-12-30T09:47:28.688Z,8.53
2018-12-30T09:48:33.744Z,8.62
2018-12-30T09:49:28.603Z,8.65
2018-12-30T09:50:28.671Z,8.68
2018-12-30T09:51:38.089Z,8.70
2018-12-30T09:52:28.547Z,8.63
2018-12-30T09:53:44.932Z,8.63
2018-12-30T09:54:29.528Z,8.63
2018-12-30T09:55:28.538Z,8.63
2018-12-30T09:56:28.507Z,8.65
2018-12-30T09:57:28.495Z,8.62
2018-12-30T09:58:28.480Z,8.67
2018-12-30T09:59:28.470Z,8.62
2018-12-30T10:00:28.481Z,8.65
2018-12-30T10:01:28.449Z,8.57
2018-12-30T10:02:28.435Z,8.71
2018-12-30T10:03:28.428Z,8.72
2018-12-30T10:04:28.415Z,8.71
2018-12-30T10:05:28.432Z,8.75
2018-12-30T10:06:28.395Z,8.74
2018-12-30T10:07:28.404Z,8.74
2018-12-30T10:08:29.344Z,8.72
2018-12-30T10:09:28.358Z,8.75
2018-12-30T10:10:28.378Z,8.71
2018-12-30T10:11:28.335Z,8.75
2018-12-30T10:12:28.325Z,8.81
2018-12-30T10:13:37.785Z,8.83
2018-12-30T10:14:28.323Z,8.80
2018-12-30T10:15:28.316Z,8.78
2018-12-30T10:16:28.280Z,8.81
2018-12-30T10:17:28.269Z,8.86
2018-12-30T10:18:28.260Z,8.88
2018-12-30T10:19:36.896Z,8.86
2018-12-30T10:20:28.258Z,8.85
2018-12-30T10:21:28.227Z,8.77
2018-12-30T10:22:28.220Z,8.86
2018-12-30T10:23:28.203Z,8.93
2018-12-30T10:24:28.192Z,8.86
2018-12-30T10:25:28.341Z,8.81
2018-12-30T10:26:28.169Z,8.83
2018-12-30T10:27:28.174Z,8.83
2018-12-30T10:28:28.146Z,8.78
2018-12-30T10:29:28.139Z,8.92
2018-12-30T10:30:28.126Z,8.80
2018-12-30T10:31:28.139Z,8.75
2018-12-30T10:32:28.106Z,8.81
2018-12-30T10:33:28.092Z,8.85
2018-12-30T10:34:37.051Z,8.83
2018-12-30T10:35:28.151Z,8.89
2018-12-30T10:36:28.196Z,8.96
2018-12-30T10:37:38.112Z,9.04
2018-12-30T10:38:28.055Z,8.95
2018-12-30T10:39:28.075Z,9.01
2018-12-30T10:40:28.080Z,8.89
2018-12-30T10:41:28.170Z,8.98
2018-12-30T10:42:28.051Z,8.81
2018-12-30T10:43:28.056Z,8.85
2018-12-30T10:44:28.008Z,8.88
2018-12-30T10:45:27.975Z,8.81
2018-12-30T10:46:27.981Z,8.78
2018-12-30T10:47:28.036Z,8.80
2018-12-30T10:48:27.962Z,8.70
2018-12-30T10:49:27.979Z,8.68
2018-12-30T10:50:27.958Z,8.65
2018-12-30T10:51:27.948Z,8.60
2018-12-30T10:52:28.030Z,8.72
2018-12-30T10:53:27.870Z,8.74
2018-12-30T10:54:27.858Z,8.67
2018-12-30T10:55:38.653Z,8.63
2018-12-30T10:56:27.837Z,8.68
2018-12-30T10:57:27.846Z,8.70
2018-12-30T10:58:36.163Z,8.67
2018-12-30T10:59:27.801Z,8.57
2018-12-30T11:00:27.813Z,8.65
2018-12-30T11:01:27.787Z,8.60
2018-12-30T11:02:27.814Z,8.72
2018-12-30T11:03:27.757Z,8.67
2018-12-30T11:04:27.750Z,8.63
2018-12-30T11:05:27.739Z,8.70
2018-12-30T11:06:27.729Z,8.71
2018-12-30T11:07:27.771Z,8.74
2018-12-30T11:08:27.714Z,8.71
2018-12-30T11:09:27.704Z,8.71
2018-12-30T11:10:27.682Z,8.77
2018-12-30T11:11:27.668Z,8.74
2018-12-30T11:12:27.656Z,8.75
2018-12-30T11:13:27.669Z,8.77
2018-12-30T11:14:27.634Z,8.74
2018-12-30T11:15:27.628Z,8.78
2018-12-30T11:16:27.613Z,8.85
2018-12-30T11:17:27.604Z,8.83
2018-12-30T11:18:27.615Z,8.90
2018-12-30T11:19:27.584Z,8.78
2018-12-30T11:20:27.566Z,8.81
2018-12-30T11:21:27.561Z,8.81
2018-12-30T11:22:27.604Z,8.89
2018-12-30T11:23:27.560Z,8.99
2018-12-30T11:24:27.523Z,8.86
2018-12-30T11:25:27.513Z,8.93
2018-12-30T11:26:27.501Z,8.93
2018-12-30T11:27:27.492Z,9.03
2018-12-30T11:28:27.508Z,9.03
2018-12-30T11:29:27.470Z,8.93
2018-12-30T11:30:27.458Z,8.93
2018-12-30T11:31:27.445Z,9.01
2018-12-30T11:32:27.436Z,8.92
2018-12-30T11:33:27.594Z,8.95
2018-12-30T11:34:27.556Z,8.92
2018-12-30T11:35:27.404Z,8.81
2018-12-30T11:36:27.389Z,8.83
2018-12-30T11:37:36.627Z,8.83
2018-12-30T11:38:27.370Z,8.89
2018-12-30T11:39:27.378Z,8.81
2018-12-30T11:40:35.737Z,8.86
2018-12-30T11:41:27.341Z,8.81
2018-12-30T11:42:27.330Z,8.88
2018-12-30T11:43:27.314Z,8.83
2018-12-30T11:44:27.324Z,8.83
2018-12-30T11:45:27.300Z,8.83
2018-12-30T11:46:27.277Z,8.83
2018-12-30T11:47:35.508Z,8.88
2018-12-30T11:48:27.263Z,8.81
2018-12-30T11:49:27.267Z,8.96
2018-12-30T11:50:27.235Z,8.83
2018-12-30T11:51:35.578Z,8.83
2018-12-30T11:52:27.212Z,8.78
2018-12-30T11:53:27.201Z,8.85
2018-12-30T11:54:27.214Z,8.85
2018-12-30T11:55:27.182Z,8.80
2018-12-30T11:56:27.309Z,8.74
2018-12-30T11:57:27.158Z,8.80
2018-12-30T11:58:27.144Z,8.72
2018-12-30T11:59:27.182Z,8.71
2018-12-30T12:00:27.124Z,8.67
2018-12-30T12:01:27.111Z,8.70
2018-12-30T12:02:27.101Z,8.70
2018-12-30T12:03:27.089Z,8.71
2018-12-30T12:04:27.079Z,8.72
2018-12-30T12:05:27.087Z,8.70
2018-12-30T12:06:27.055Z,8.65
2018-12-30T12:07:27.046Z,8.70
2018-12-30T12:09:50.891Z,8.74
2018-12-30T12:10:50.851Z,8.71
2018-12-30T12:11:50.836Z,8.71
2018-12-30T12:12:50.827Z,8.57
2018-12-30T12:13:50.814Z,8.67
2018-12-30T12:14:50.806Z,8.60
2018-12-30T12:15:50.820Z,8.60
2018-12-30T12:16:50.784Z,8.56
2018-12-30T12:18:00.158Z,8.63
2018-12-30T12:18:50.766Z,8.59
2018-12-30T12:19:50.749Z,8.68
2018-12-30T12:20:50.835Z,8.63
2018-12-30T12:21:50.729Z,8.67
2018-12-30T12:22:50.715Z,8.70
2018-12-30T12:23:50.714Z,8.68
2018-12-30T12:24:50.694Z,8.67
2018-12-30T12:25:50.716Z,8.70
2018-12-30T12:26:50.817Z,8.74
2018-12-30T12:27:50.730Z,8.68
2018-12-30T12:28:50.705Z,8.75
2018-12-30T12:29:50.637Z,8.72
2018-12-30T12:30:58.946Z,8.71
2018-12-30T12:31:50.618Z,8.71
2018-12-30T12:32:50.607Z,8.74
2018-12-30T12:33:50.605Z,8.75
2018-12-30T12:34:50.582Z,8.78
2018-12-30T12:35:50.593Z,8.77
2018-12-30T12:36:50.561Z,8.78
2018-12-30T12:37:50.548Z,8.70
2018-12-30T12:38:50.538Z,8.72
2018-12-30T12:39:50.527Z,8.75
2018-12-30T12:40:50.540Z,8.74
2018-12-30T12:41:50.506Z,8.65
2018-12-30T12:42:50.498Z,8.77
2018-12-30T12:43:50.484Z,8.71
2018-12-30T12:44:50.469Z,8.80
2018-12-30T12:45:59.754Z,8.72
2018-12-30T12:46:59.032Z,8.67
2018-12-30T12:47:50.441Z,8.62
2018-12-30T12:48:50.435Z,8.71
2018-12-30T12:49:50.414Z,8.67
2018-12-30T12:50:50.450Z,8.65
2018-12-30T12:51:50.393Z,8.70
2018-12-30T12:52:59.261Z,8.72
2018-12-30T12:53:50.371Z,8.78
2018-12-30T12:54:50.371Z,8.72
2018-12-30T12:55:50.373Z,8.71
2018-12-30T12:56:50.360Z,8.74
2018-12-30T12:57:50.325Z,8.72
2018-12-30T12:58:50.314Z,8.70
2018-12-30T12:59:50.309Z,8.72
2018-12-30T13:00:58.506Z,8.75
2018-12-30T13:01:50.310Z,8.70
2018-12-30T13:02:50.273Z,8.80
2018-12-30T13:03:50.258Z,8.75
2018-12-30T13:04:50.249Z,8.68
2018-12-30T13:05:50.239Z,8.86
2018-12-30T13:06:50.263Z,8.86
2018-12-30T13:07:50.216Z,8.78
2018-12-30T13:08:50.204Z,8.70
2018-12-30T13:09:50.191Z,8.77
2018-12-30T13:10:50.187Z,8.68
2018-12-30T13:11:50.170Z,8.71
2018-12-30T13:12:50.183Z,8.71
2018-12-30T13:13:50.149Z,8.80
2018-12-30T13:14:50.136Z,8.81
2018-12-30T13:15:50.126Z,8.80
2018-12-30T13:16:50.114Z,8.77
2018-12-30T13:17:50.128Z,8.72
2018-12-30T13:18:50.095Z,8.68
2018-12-30T13:19:50.081Z,8.72